createdAt,value
2022-07-29T00:02:24.491Z,95555.72
2022-07-29T00:04:51.547Z,95560.25
2022-07-29T00:07:18.667Z,95553.97
2022-07-29T00:09:51.556Z,95551.16
2022-07-29T00:12:25.177Z,95554.69
2022-07-29T00:14:53.966Z,95549.31
2022-07-29T00:17:21.142Z,95546.25
2022-07-29T00:19:48.226Z,95542.63
2022-07-29T00:22:15.839Z,95543.44
2022-07-29T00:24:43.349Z,95546.97
2022-07-29T00:32:36.829Z,95551.34
2022-07-29T00:35:23.001Z,95545.41
2022-07-29T00:37:50.064Z,95542.25
2022-07-29T00:40:17.851Z,95542.25
2022-07-29T00:42:45.645Z,95539.97
2022-07-29T00:45:13.315Z,95535.44
2022-07-29T00:47:40.495Z,95534.97
2022-07-29T00:50:09.258Z,95531.69
2022-07-29T00:57:02.750Z,95525.19
2022-07-29T01:00:19.864Z,95526.31
2022-07-29T01:07:13.730Z,95501.25
2022-07-29T01:09:46.623Z,95497.34
2022-07-29T01:12:19.845Z,95489.28
2022-07-29T01:14:48.840Z,95490.56
2022-07-29T01:17:25.725Z,95490.19
2022-07-29T01:19:52.747Z,95484.31
2022-07-29T01:22:32.341Z,95482.72
2022-07-29T01:25:22.466Z,95481.91
2022-07-29T01:27:49.572Z,95469.72
2022-07-29T01:30:17.044Z,95471.66
2022-07-29T01:32:48.473Z,95472.47
2022-07-29T01:35:22.114Z,95469.31
2022-07-29T01:37:52.013Z,95466.91
2022-07-29T01:40:28.171Z,95461.78
2022-07-29T01:42:59.062Z,95454.28
2022-07-29T01:45:26.133Z,95453.13
2022-07-29T01:48:13.966Z,95443.34
2022-07-29T01:50:45.264Z,95440.19
2022-07-29T01:53:13.648Z,95435.06
2022-07-29T01:55:42.828Z,95439.28
2022-07-29T01:58:11.791Z,95439.50
2022-07-29T02:00:40.275Z,95441.31
2022-07-29T02:03:12.331Z,95439.28
2022-07-29T02:05:42.069Z,95434.94
2022-07-29T02:08:10.776Z,95436.41
2022-07-29T02:10:39.111Z,95443.94
2022-07-29T02:13:06.735Z,95454.69
2022-07-29T02:15:35.031Z,95453.97
2022-07-29T02:18:04.511Z,95445.44
2022-07-29T02:20:32.126Z,95444.66
2022-07-29T02:23:00.754Z,95438.00
2022-07-29T02:25:36.981Z,95429.94
2022-07-29T02:32:50.266Z,95465.19
2022-07-29T02:35:17.865Z,95466.78
2022-07-29T02:37:46.573Z,95474.06
2022-07-29T02:40:15.588Z,95469.41
2022-07-29T02:42:44.830Z,95481.91
2022-07-29T02:45:11.941Z,95475.34
2022-07-29T02:47:43.604Z,95481.13
2022-07-29T02:50:13.415Z,95488.03
2022-07-29T02:52:53.406Z,95494.16
2022-07-29T03:17:47.392Z,95463.59
2022-07-29T03:20:14.713Z,95474.03
2022-07-29T03:22:44.542Z,95472.09
2022-07-29T03:34:18.306Z,95486.91
2022-07-29T03:36:45.809Z,95488.41
2022-07-29T03:39:13.021Z,95488.25
2022-07-29T03:41:42.649Z,95494.38
2022-07-29T03:44:09.962Z,95495.50
2022-07-29T03:46:40.062Z,95497.09
2022-07-29T03:49:09.291Z,95499.81
2022-07-29T03:51:36.463Z,95497.53
2022-07-29T03:54:09.533Z,95494.16
2022-07-29T03:56:39.383Z,95498.03
2022-07-29T03:59:06.844Z,95498.69
2022-07-29T04:01:34.568Z,95487.34
2022-07-29T04:04:05.657Z,95490.50
2022-07-29T04:06:42.549Z,95492.56
2022-07-29T04:09:10.144Z,95499.16
2022-07-29T04:12:02.712Z,95494.81
2022-07-29T04:14:25.741Z,95491.78
2022-07-29T04:16:53.912Z,95495.28
2022-07-29T04:19:21.021Z,95493.59
2022-07-29T04:21:48.156Z,95502.19
2022-07-29T04:24:15.624Z,95503.00
2022-07-29T04:26:43.411Z,95506.19
2022-07-29T04:29:10.457Z,95515.47
2022-07-29T04:31:37.618Z,95509.56
2022-07-29T04:34:04.789Z,95500.16
2022-07-29T04:36:31.880Z,95502.41
2022-07-29T04:38:59.001Z,95505.44
2022-07-29T04:41:32.968Z,95504.53
2022-07-29T04:44:05.953Z,95502.53
2022-07-29T04:46:34.802Z,95508.81
2022-07-29T04:49:02.162Z,95515.03
2022-07-29T04:51:29.228Z,95508.47
2022-07-29T04:53:56.296Z,95512.31
2022-07-29T04:56:23.491Z,95509.94
2022-07-29T04:58:50.603Z,95509.94
2022-07-29T05:01:17.879Z,95511.66
2022-07-29T05:03:46.131Z,95518.69
2022-07-29T05:06:13.241Z,95507.81
2022-07-29T05:08:41.880Z,95517.91
2022-07-29T05:11:11.772Z,95515.66
2022-07-29T05:13:46.121Z,95522.06
2022-07-29T05:16:14.797Z,95517.41
2022-07-29T05:18:43.226Z,95516.88
2022-07-29T05:21:10.381Z,95521.25
2022-07-29T05:23:37.467Z,95519.47
2022-07-29T05:26:04.587Z,95517.69
2022-07-29T05:28:34.338Z,95512.38
2022-07-29T05:31:01.661Z,95509.28
2022-07-29T05:33:36.228Z,95515.69
2022-07-29T05:36:06.581Z,95515.69
2022-07-29T05:38:34.098Z,95512.66
2022-07-29T05:41:01.240Z,95523.66
2022-07-29T05:43:28.688Z,95530.38
2022-07-29T05:45:56.121Z,95536.09
2022-07-29T05:48:23.258Z,95538.75
2022-07-29T05:50:50.332Z,95534.69
2022-07-29T05:53:19.346Z,95535.53
2022-07-29T05:55:51.297Z,95522.34
2022-07-29T05:58:18.538Z,95534.50
2022-07-29T06:00:45.794Z,95529.56
2022-07-29T06:03:27.888Z,95526.50
2022-07-29T06:05:55.013Z,95527.31
2022-07-29T06:08:22.066Z,95529.69
2022-07-29T06:10:52.021Z,95538.09
2022-07-29T06:13:20.864Z,95536.25
2022-07-29T06:15:47.984Z,95535.53
2022-07-29T06:18:15.181Z,95523.84
2022-07-29T06:20:42.298Z,95531.44
2022-07-29T06:23:10.880Z,95536.00
2022-07-29T06:25:38.536Z,95531.69
2022-07-29T06:28:05.740Z,95521.31
2022-07-29T06:31:22.918Z,95530.13
2022-07-29T06:33:50.055Z,95529.94
2022-07-29T06:36:17.134Z,95529.13
2022-07-29T06:38:49.523Z,95540.31
2022-07-29T06:41:19.018Z,95537.22
2022-07-29T06:43:51.754Z,95534.38
2022-07-29T06:46:20.564Z,95533.78
2022-07-29T06:48:48.711Z,95538.31
2022-07-29T06:51:16.325Z,95536.25
2022-07-29T06:54:00.216Z,95538.38
2022-07-29T06:56:31.442Z,95540.59
2022-07-29T06:58:58.699Z,95540.91
2022-07-29T07:01:26.002Z,95538.00
2022-07-29T07:03:53.118Z,95541.19
2022-07-29T07:06:49.014Z,95545.47
2022-07-29T07:09:16.053Z,95545.91
2022-07-29T07:11:46.138Z,95543.09
2022-07-29T07:14:41.958Z,95544.38
2022-07-29T07:17:09.210Z,95545.25
2022-07-29T07:20:01.771Z,95543.69
2022-07-29T07:22:28.852Z,95544.84
2022-07-29T07:24:55.954Z,95547.69
2022-07-29T07:27:47.713Z,95541.13
2022-07-29T07:30:14.831Z,95543.97
2022-07-29T07:32:41.876Z,95541.44
2022-07-29T07:35:09.614Z,95539.97
2022-07-29T07:37:36.776Z,95537.72
2022-07-29T07:40:04.501Z,95542.38
2022-07-29T07:42:51.929Z,95545.38
2022-07-29T07:45:19.145Z,95547.97
2022-07-29T07:47:46.165Z,95542.56
2022-07-29T07:50:18.438Z,95539.78
2022-07-29T07:52:50.397Z,95541.38
2022-07-29T07:55:17.567Z,95530.84
2022-07-29T07:57:45.198Z,95537.63
2022-07-29T08:00:13.982Z,95537.03
2022-07-29T08:02:41.599Z,95529.38
2022-07-29T08:05:17.823Z,95533.50
2022-07-29T08:07:46.615Z,95531.66
2022-07-29T08:10:18.556Z,95531.34
2022-07-29T08:15:30.909Z,95524.25
2022-07-29T08:17:58.140Z,95526.31
2022-07-29T08:20:25.260Z,95526.72
2022-07-29T08:22:54.498Z,95523.84
2022-07-29T08:25:21.691Z,95524.94
2022-07-29T08:27:49.140Z,95531.31
2022-07-29T08:30:16.436Z,95522.66
2022-07-29T08:32:53.657Z,95518.00
2022-07-29T08:35:22.159Z,95517.97
2022-07-29T08:37:49.416Z,95525.13
2022-07-29T08:40:16.587Z,95511.28
2022-07-29T08:42:43.790Z,95518.00
2022-07-29T08:45:11.174Z,95515.66
2022-07-29T08:47:40.663Z,95519.59
2022-07-29T08:50:08.534Z,95513.25
2022-07-29T08:52:37.258Z,95513.25
2022-07-29T08:55:05.395Z,95512.88
2022-07-29T08:57:33.666Z,95514.44
2022-07-29T09:00:08.023Z,95525.13
2022-07-29T09:02:41.236Z,95530.19
2022-07-29T09:05:51.989Z,95525.03
2022-07-29T09:08:21.205Z,95522.28
2022-07-29T09:10:48.808Z,95526.66
2022-07-29T09:13:15.950Z,95518.31
2022-07-29T09:19:48.649Z,95528.25
2022-07-29T09:22:30.076Z,95526.31
2022-07-29T09:29:38.517Z,95517.22
2022-07-29T09:32:07.816Z,95514.03
2022-07-29T09:34:38.437Z,95514.03
2022-07-29T09:37:09.280Z,95512.91
2022-07-29T09:40:01.660Z,95514.06
2022-07-29T09:42:30.205Z,95502.19
2022-07-29T09:44:57.285Z,95501.81
2022-07-29T09:47:40.915Z,95497.47
2022-07-29T09:53:40.833Z,95504.19
2022-07-29T09:56:55.231Z,95503.75
2022-07-29T09:59:25.308Z,95503.69
2022-07-29T10:02:22.729Z,95510.00
2022-07-29T10:05:17.887Z,95506.16
2022-07-29T10:07:53.183Z,95501.34
2022-07-29T10:10:31.262Z,95503.63
2022-07-29T10:13:23.859Z,95493.19
2022-07-29T10:15:52.217Z,95497.69
2022-07-29T10:18:20.905Z,95488.81
2022-07-29T10:20:49.126Z,95488.13
2022-07-29T10:23:19.621Z,95483.03
2022-07-29T10:25:46.970Z,95488.63
2022-07-29T10:28:21.422Z,95483.47
2022-07-29T10:30:53.910Z,95482.50
2022-07-29T10:33:50.423Z,95475.06
2022-07-29T10:40:34.001Z,95481.09
2022-07-29T10:43:07.529Z,95471.25
2022-07-29T10:45:34.769Z,95465.47
2022-07-29T10:48:09.813Z,95461.28
2022-07-29T10:51:04.575Z,95473.13
2022-07-29T10:53:48.382Z,95462.69
2022-07-29T10:56:25.339Z,95458.00
2022-07-29T10:59:11.276Z,95460.25
2022-07-29T11:01:39.117Z,95463.16
2022-07-29T11:04:36.134Z,95461.56
2022-07-29T11:07:06.053Z,95462.28
2022-07-29T11:15:03.003Z,95460.13
2022-07-29T11:17:53.090Z,95458.66
2022-07-29T11:20:33.187Z,95456.19
2022-07-29T11:23:00.416Z,95443.44
2022-07-29T11:25:50.306Z,95445.50
2022-07-29T11:28:23.108Z,95448.97
2022-07-29T11:31:18.723Z,95447.97
2022-07-29T11:36:59.489Z,95457.91
2022-07-29T11:39:52.917Z,95464.22
2022-07-29T11:42:28.188Z,95464.69
2022-07-29T11:45:41.397Z,95458.69
2022-07-29T11:48:28.590Z,95459.28
2022-07-29T11:50:58.173Z,95466.75
2022-07-29T11:53:29.282Z,95467.09
2022-07-29T11:55:59.882Z,95466.56
2022-07-29T11:58:28.288Z,95470.44
2022-07-29T12:00:56.261Z,95465.19
2022-07-29T12:03:50.785Z,95480.22
2022-07-29T12:06:21.092Z,95467.53
2022-07-29T12:07:03.416Z,95450.00
2022-07-29T12:08:59.244Z,95475.66
2022-07-29T12:15:46.836Z,95498.91
2022-07-29T12:19:12.898Z,95485.28
2022-07-29T12:26:21.945Z,95507.66
2022-07-29T12:28:52.912Z,95492.13
2022-07-29T12:31:42.836Z,95486.75
2022-07-29T12:34:09.043Z,95464.06
2022-07-29T12:36:37.268Z,95470.50
2022-07-29T12:39:10.025Z,95488.00
2022-07-29T12:41:37.168Z,95490.66
2022-07-29T12:44:31.316Z,95487.34
2022-07-29T12:47:05.053Z,95515.22
2022-07-29T12:49:32.195Z,95530.78
2022-07-29T12:52:24.132Z,95508.38
2022-07-29T12:54:51.300Z,95492.69
2022-07-29T12:57:20.135Z,95491.28
2022-07-29T13:03:02.481Z,95481.22
2022-07-29T13:05:48.534Z,95484.59
2022-07-29T13:17:51.085Z,95488.56
2022-07-29T13:20:20.052Z,95460.78
2022-07-29T13:23:40.150Z,95461.22
2022-07-29T13:26:08.698Z,95470.56
2022-07-29T13:28:36.223Z,95465.53
2022-07-29T13:31:03.493Z,95460.69
2022-07-29T13:33:32.154Z,95465.63
2022-07-29T13:36:01.692Z,95472.41
2022-07-29T13:38:30.928Z,95471.66
2022-07-29T13:40:58.811Z,95463.13
2022-07-29T13:44:11.482Z,95464.69
2022-07-29T13:46:39.506Z,95474.31
2022-07-29T13:49:07.381Z,95467.97
2022-07-29T13:51:34.499Z,95469.31
2022-07-29T13:54:01.609Z,95469.19
2022-07-29T13:56:29.746Z,95473.34
2022-07-29T13:58:57.793Z,95473.66
2022-07-29T14:01:25.567Z,95462.06
2022-07-29T14:03:52.748Z,95470.50
2022-07-29T14:06:20.135Z,95452.63
2022-07-29T14:08:49.400Z,95448.06
2022-07-29T14:11:16.544Z,95443.53
2022-07-29T14:13:43.619Z,95442.13
2022-07-29T14:16:10.862Z,95446.22
2022-07-29T14:18:38.003Z,95456.53
2022-07-29T14:21:05.131Z,95451.44
2022-07-29T14:23:32.356Z,95463.66
2022-07-29T14:25:59.439Z,95456.56
2022-07-29T14:28:51.978Z,95451.09
2022-07-29T14:31:19.065Z,95457.16
2022-07-29T14:33:49.307Z,95449.22
2022-07-29T14:36:16.664Z,95444.16
2022-07-29T14:38:43.882Z,95441.72
2022-07-29T14:41:10.980Z,95446.41
2022-07-29T14:43:38.159Z,95457.16
2022-07-29T14:46:08.386Z,95456.88
2022-07-29T14:48:36.079Z,95456.44
2022-07-29T14:51:05.115Z,95450.44
2022-07-29T14:53:33.057Z,95457.50
2022-07-29T14:56:10.387Z,95460.06
2022-07-29T14:58:51.497Z,95456.72
2022-07-29T15:01:20.690Z,95463.72
2022-07-29T15:03:47.809Z,95466.91
2022-07-29T15:06:14.942Z,95468.56
2022-07-29T15:08:42.010Z,95466.16
2022-07-29T15:11:09.190Z,95462.22
2022-07-29T15:13:36.289Z,95464.22
2022-07-29T15:16:03.476Z,95466.31
2022-07-29T15:18:31.010Z,95457.28
2022-07-29T15:21:01.422Z,95455.84
2022-07-29T15:23:29.747Z,95458.97
2022-07-29T15:25:56.874Z,95461.41
2022-07-29T15:28:23.958Z,95464.06
2022-07-29T15:30:51.078Z,95455.84
2022-07-29T15:33:18.778Z,95461.41
2022-07-29T15:35:46.063Z,95456.28
2022-07-29T15:47:38.275Z,95458.03
2022-07-29T15:50:05.679Z,95458.91
2022-07-29T15:52:32.748Z,95457.72
2022-07-29T15:55:00.323Z,95459.75
2022-07-29T15:57:27.373Z,95464.00
2022-07-29T15:59:55.354Z,95463.22
2022-07-29T16:02:47.808Z,95461.78
2022-07-29T16:05:14.986Z,95465.16
2022-07-29T16:07:42.057Z,95468.53
2022-07-29T16:10:37.322Z,95471.28
2022-07-29T16:13:55.276Z,95468.78
2022-07-29T16:16:23.015Z,95474.19
2022-07-29T16:18:51.245Z,95478.16
2022-07-29T16:21:18.347Z,95471.00
2022-07-29T16:24:14.239Z,95481.09
2022-07-29T16:26:41.416Z,95470.06
2022-07-29T16:29:08.531Z,95470.13
2022-07-29T16:31:35.682Z,95471.38
2022-07-29T16:34:02.837Z,95464.22
2022-07-29T16:36:30.035Z,95461.41
2022-07-29T16:38:57.215Z,95470.44
2022-07-29T16:41:24.339Z,95473.94
2022-07-29T16:43:51.483Z,95476.16
2022-07-29T16:46:19.384Z,95477.09
2022-07-29T16:48:47.914Z,95482.81
2022-07-29T16:51:16.156Z,95487.91
2022-07-29T16:53:52.407Z,95493.03
2022-07-29T16:56:45.399Z,95488.84
2022-07-29T16:59:12.457Z,95498.09
2022-07-29T17:01:39.656Z,95514.72
2022-07-29T17:04:06.740Z,95515.78
2022-07-29T17:06:37.745Z,95532.50
2022-07-29T17:09:05.686Z,95522.19
2022-07-29T17:11:53.425Z,95516.97
2022-07-29T17:14:24.199Z,95517.97
2022-07-29T17:17:00.653Z,95512.84
2022-07-29T17:19:30.124Z,95516.13
2022-07-29T17:22:06.449Z,95509.66
2022-07-29T17:24:34.109Z,95518.19
2022-07-29T17:27:01.707Z,95519.31
2022-07-29T17:29:54.168Z,95531.03
2022-07-29T17:36:24.347Z,95537.78
2022-07-29T17:38:56.554Z,95544.44
2022-07-29T17:41:25.540Z,95547.44
2022-07-29T17:43:57.667Z,95554.22
2022-07-29T17:46:50.749Z,95558.09
2022-07-29T17:49:19.154Z,95558.22
2022-07-29T17:51:46.455Z,95564.00
2022-07-29T17:54:13.834Z,95564.69
2022-07-29T17:56:41.587Z,95561.13
2022-07-29T17:59:10.445Z,95567.50
2022-07-29T18:01:41.403Z,95571.69
2022-07-29T18:04:08.882Z,95570.81
2022-07-29T18:06:36.149Z,95572.13
2022-07-29T18:09:03.475Z,95574.09
2022-07-29T18:16:20.055Z,95577.34
2022-07-29T18:28:00.742Z,95594.88
2022-07-29T18:30:28.658Z,95588.22
2022-07-29T18:33:20.123Z,95594.88
2022-07-29T18:35:46.269Z,95588.75
2022-07-29T18:38:13.429Z,95586.66
2022-07-29T18:40:42.043Z,95585.16
2022-07-29T18:43:09.243Z,95597.38
2022-07-29T18:45:36.385Z,95589.63
2022-07-29T18:48:13.225Z,95594.34
2022-07-29T18:50:41.387Z,95592.38
2022-07-29T18:53:08.761Z,95586.69
2022-07-29T18:56:47.076Z,95604.00
2022-07-29T18:59:22.217Z,95600.59
2022-07-29T19:03:15.213Z,95609.47
2022-07-29T19:06:30.510Z,95603.41
2022-07-29T19:08:57.581Z,95617.28
2022-07-29T19:11:28.781Z,95623.53
2022-07-29T19:14:42.021Z,95625.25
2022-07-29T19:17:09.157Z,95638.56
2022-07-29T19:19:36.204Z,95644.81
2022-07-29T19:22:03.320Z,95637.75
2022-07-29T19:24:30.392Z,95648.66
2022-07-29T19:26:57.835Z,95647.06
2022-07-29T19:29:26.493Z,95648.56
2022-07-29T19:31:53.721Z,95654.69
2022-07-29T19:34:20.853Z,95660.69
2022-07-29T19:36:47.931Z,95664.88
2022-07-29T19:39:15.417Z,95663.81
2022-07-29T19:41:42.536Z,95671.09
2022-07-29T19:44:11.284Z,95676.06
2022-07-29T19:46:41.585Z,95672.16
2022-07-29T19:49:17.008Z,95679.22
2022-07-29T19:51:44.178Z,95681.47
2022-07-29T19:54:36.006Z,95676.34
2022-07-29T19:57:28.007Z,95672.16
2022-07-29T20:00:08.435Z,95676.00
2022-07-29T20:02:39.219Z,95682.13
2022-07-29T20:05:06.724Z,95685.78
2022-07-29T20:07:34.408Z,95683.88
2022-07-29T20:10:01.548Z,95684.66
2022-07-29T20:12:28.704Z,95691.69
2022-07-29T20:14:55.886Z,95694.41
2022-07-29T20:17:23.030Z,95697.63
2022-07-29T20:19:50.536Z,95699.88
2022-07-29T20:22:21.171Z,95694.91
2022-07-29T20:24:48.832Z,95693.97
2022-07-29T20:27:15.956Z,95700.22
2022-07-29T20:29:43.054Z,95702.00
2022-07-29T20:32:11.988Z,95698.47
2022-07-29T20:34:41.177Z,95692.91
2022-07-29T20:37:11.243Z,95690.34
2022-07-29T20:39:38.325Z,95688.75
2022-07-29T20:42:05.867Z,95687.16
2022-07-29T20:44:32.950Z,95688.41
2022-07-29T20:47:00.229Z,95695.97
2022-07-29T20:49:27.686Z,95692.72
2022-07-29T20:51:54.791Z,95690.50
2022-07-29T20:54:21.875Z,95694.03
2022-07-29T20:56:48.964Z,95690.63
2022-07-29T20:59:17.664Z,95687.56
2022-07-29T21:01:44.901Z,95692.56
2022-07-29T21:04:12.115Z,95692.25
2022-07-29T21:06:39.200Z,95692.47
2022-07-29T21:09:06.251Z,95693.16
2022-07-29T21:11:43.572Z,95689.25
2022-07-29T21:14:20.657Z,95694.06
2022-07-29T21:16:47.716Z,95691.00
2022-07-29T21:19:14.829Z,95685.41
2022-07-29T21:21:41.900Z,95697.13
2022-07-29T21:24:08.982Z,95692.47
2022-07-29T21:26:39.398Z,95699.38
2022-07-29T21:29:06.587Z,95694.59
2022-07-29T21:31:33.636Z,95699.91
2022-07-29T21:34:00.725Z,95696.38
2022-07-29T21:36:47.862Z,95692.41
2022-07-29T21:39:14.843Z,95691.94
2022-07-29T21:41:41.891Z,95681.50
2022-07-29T21:44:08.986Z,95683.09
2022-07-29T21:46:36.725Z,95683.53
2022-07-29T21:49:03.953Z,95682.41
2022-07-29T21:51:31.020Z,95680.50
2022-07-29T21:53:58.106Z,95679.56
2022-07-29T21:56:27.807Z,95674.78
2022-07-29T21:58:55.384Z,95674.19
2022-07-29T22:01:22.644Z,95674.81
2022-07-29T22:03:49.753Z,95665.72
2022-07-29T22:06:18.130Z,95668.66
2022-07-29T22:08:45.811Z,95671.56
2022-07-29T22:14:55.542Z,95654.69
2022-07-29T22:17:25.884Z,95643.19
2022-07-29T22:19:53.546Z,95647.56
2022-07-29T22:22:20.916Z,95637.66
2022-07-29T22:25:38.228Z,95634.63
2022-07-29T22:28:05.292Z,95636.88
2022-07-29T22:30:32.366Z,95633.03
2022-07-29T22:32:59.462Z,95636.72
2022-07-29T22:35:26.557Z,95642.63
2022-07-29T22:37:54.187Z,95645.16
2022-07-29T22:40:21.319Z,95648.16
2022-07-29T22:42:48.498Z,95645.13
2022-07-29T22:45:15.579Z,95643.19
2022-07-29T22:47:47.795Z,95640.78
2022-07-29T22:50:16.163Z,95639.72
2022-07-29T22:52:43.263Z,95639.09
2022-07-29T22:55:10.417Z,95633.38
2022-07-29T22:57:37.634Z,95643.47
2022-07-29T23:00:05.654Z,95634.97
2022-07-29T23:02:32.736Z,95631.63
2022-07-29T23:04:59.773Z,95633.66
2022-07-29T23:07:27.161Z,95627.44
2022-07-29T23:09:54.280Z,95635.16
2022-07-29T23:12:21.350Z,95629.03
2022-07-29T23:14:48.432Z,95632.06
2022-07-29T23:17:15.536Z,95635.94
2022-07-29T23:19:42.614Z,95630.81
2022-07-29T23:22:09.741Z,95629.22
2022-07-29T23:24:36.834Z,95636.25
2022-07-29T23:27:04.109Z,95639.31
2022-07-29T23:29:36.475Z,95638.19
2022-07-29T23:32:04.065Z,95631.13
2022-07-29T23:34:31.190Z,95627.94
2022-07-29T23:36:58.533Z,95636.91
2022-07-29T23:39:51.267Z,95632.44
2022-07-29T23:42:18.561Z,95628.00
2022-07-29T23:44:45.583Z,95627.53
2022-07-29T23:47:13.647Z,95617.44
2022-07-29T23:49:40.802Z,95616.63
2022-07-29T23:52:07.859Z,95613.44
2022-07-29T23:54:35.121Z,95611.84
2022-07-29T23:57:02.668Z,95616.03
2022-07-29T23:59:30.011Z,95613.31
